createdAt,value
2024-04-06T09:35:20.078Z,14.20
2024-04-06T09:37:51.393Z,30.20
2024-04-06T09:40:21.285Z,29.80
2024-04-06T09:42:50.931Z,29.90
2024-04-06T09:45:21.777Z,30.00
2024-04-06T09:47:52.199Z,30.20
2024-04-06T09:50:24.939Z,30.20
2024-04-06T09:52:53.047Z,30.20
2024-04-06T09:55:23.380Z,30.00
2024-04-06T09:57:52.452Z,29.90
2024-04-06T10:00:23.022Z,29.90
2024-04-06T10:05:21.383Z,29.40
2024-04-06T10:07:51.544Z,28.60
2024-04-06T10:10:20.240Z,28.30
2024-04-06T10:12:50.257Z,28.10
2024-04-06T10:15:39.759Z,28.00
2024-04-06T10:18:09.588Z,28.30
2024-04-06T10:20:39.786Z,28.50
2024-04-06T10:23:08.757Z,28.80
2024-04-06T10:25:39.186Z,29.00
2024-04-06T10:28:13.976Z,29.10
2024-04-06T10:30:44.273Z,28.90
2024-04-06T10:33:14.153Z,29.20
2024-04-06T10:35:42.725Z,29.70
2024-04-06T10:38:11.477Z,30.30
2024-04-06T10:40:40.179Z,30.80
2024-04-06T10:43:09.845Z,31.10
2024-04-06T10:45:38.462Z,31.40
2024-04-06T10:48:07.544Z,31.50
2024-04-06T10:50:36.236Z,31.70
2024-04-06T10:53:06.594Z,31.80
2024-04-06T10:55:36.192Z,31.90
2024-04-06T10:58:04.928Z,32.10
2024-04-06T11:00:36.239Z,32.20
2024-04-06T11:03:06.696Z,32.40
2024-04-06T11:05:39.750Z,32.70
2024-04-06T11:08:09.757Z,32.70
2024-04-06T11:10:40.018Z,32.70
2024-04-06T11:13:09.996Z,32.70
2024-04-06T11:15:38.631Z,32.60
2024-04-06T11:18:08.817Z,32.40
2024-04-06T11:20:37.405Z,32.40
2024-04-06T11:23:06.365Z,32.60
2024-04-06T11:25:36.639Z,32.70
2024-04-06T11:28:05.519Z,32.90
2024-04-06T11:30:34.235Z,33.30
2024-04-06T11:33:04.550Z,33.60
2024-04-06T11:35:33.234Z,33.80
2024-04-06T11:38:02.011Z,33.70
2024-04-06T11:40:30.711Z,33.30
2024-04-06T11:42:59.331Z,32.90
2024-04-06T11:45:29.497Z,32.60
2024-04-06T11:47:58.326Z,32.50
2024-04-06T11:50:26.964Z,32.50
2024-04-06T11:52:55.592Z,32.60
2024-04-06T11:55:24.212Z,32.70
2024-04-06T11:57:53.194Z,32.70
2024-04-06T12:00:22.237Z,32.90
2024-04-06T12:02:50.884Z,32.90
2024-04-06T12:05:19.499Z,33.00
2024-04-06T12:07:48.125Z,33.00
2024-04-06T12:10:16.858Z,33.20
2024-04-06T12:12:45.560Z,33.10
2024-04-06T12:15:16.735Z,32.90
2024-04-06T12:17:45.831Z,32.70
2024-04-06T12:20:14.468Z,32.50
2024-04-06T12:22:43.090Z,32.30
2024-04-06T12:25:11.714Z,32.00
2024-04-06T12:27:41.909Z,31.70
2024-04-06T12:30:12.380Z,31.40
2024-04-06T12:32:41.008Z,31.50
2024-04-06T12:35:10.024Z,31.40
2024-04-06T12:37:38.737Z,31.30
2024-04-06T12:40:11.031Z,31.20
2024-04-06T12:42:41.017Z,31.20
2024-04-06T12:45:10.270Z,31.10
2024-04-06T12:47:39.520Z,31.10
2024-04-06T12:50:09.294Z,31.00
2024-04-06T12:52:38.065Z,30.80
2024-04-06T12:55:08.304Z,30.60
2024-04-06T12:57:44.431Z,30.50
2024-04-06T13:00:16.858Z,30.50
2024-04-06T13:02:45.289Z,30.40
2024-04-06T13:05:14.031Z,30.30
2024-04-06T13:07:42.606Z,30.10
2024-04-06T13:10:12.832Z,30.00
2024-04-06T13:12:41.850Z,29.90
2024-04-06T13:15:12.024Z,29.80
2024-04-06T13:17:44.238Z,29.70
2024-04-06T13:20:18.128Z,29.70
2024-04-06T13:22:47.468Z,29.60
2024-04-06T13:25:16.246Z,29.50
2024-04-06T13:27:45.090Z,29.40
2024-04-06T13:30:14.024Z,29.40
2024-04-06T13:32:42.807Z,29.40
2024-04-06T13:35:11.509Z,29.50
2024-04-06T13:37:40.971Z,29.50
2024-04-06T13:40:12.042Z,29.50
2024-04-06T13:42:41.485Z,29.60
2024-04-06T13:45:15.238Z,29.70
2024-04-06T13:47:46.045Z,29.70
2024-04-06T13:50:15.100Z,29.90
2024-04-06T13:52:45.328Z,29.80
2024-04-06T13:55:15.494Z,29.80
2024-04-06T13:57:45.820Z,29.80
2024-04-06T14:00:17.143Z,29.70
2024-04-06T14:02:45.755Z,29.60
2024-04-06T14:05:14.496Z,29.60
2024-04-06T14:07:43.375Z,29.60
2024-04-06T14:10:12.113Z,29.70
2024-04-06T14:12:40.686Z,29.70
2024-04-06T14:15:09.962Z,29.80
2024-04-06T14:17:39.911Z,29.80
2024-04-06T14:20:11.785Z,30.00
2024-04-06T14:22:41.166Z,30.00
2024-04-06T14:25:11.229Z,30.00
2024-04-06T14:27:41.320Z,29.90
2024-04-06T14:30:28.386Z,29.80
2024-04-06T14:32:58.934Z,29.80
2024-04-06T14:35:28.172Z,29.70
2024-04-06T14:37:56.846Z,29.60
2024-04-06T14:40:25.553Z,29.40
2024-04-06T14:42:54.412Z,29.30
2024-04-06T14:45:23.265Z,29.20
2024-04-06T14:47:52.107Z,29.10
2024-04-06T14:50:20.698Z,29.00
2024-04-06T14:52:49.520Z,28.90
2024-04-06T14:55:19.427Z,28.90
2024-04-06T14:57:48.176Z,28.80
2024-04-06T15:00:17.100Z,28.80
2024-04-06T15:02:46.240Z,28.80
2024-04-06T15:05:15.072Z,28.80
2024-04-06T15:07:43.806Z,28.80
2024-04-06T15:10:12.503Z,28.80
2024-04-06T15:12:41.134Z,28.80
2024-04-06T15:15:09.758Z,28.80
2024-04-06T15:17:38.465Z,28.70
2024-04-06T15:20:14.548Z,28.70
2024-04-06T15:22:43.621Z,28.70
2024-04-06T15:25:15.678Z,28.60
2024-04-06T15:27:44.514Z,28.70
2024-04-06T15:30:13.277Z,28.60
2024-04-06T15:32:43.725Z,28.60
2024-04-06T15:35:12.357Z,28.60
2024-04-06T15:37:40.970Z,28.70
2024-04-06T15:40:11.943Z,28.70
2024-04-06T15:42:41.291Z,28.70
2024-04-06T15:45:11.947Z,28.80
2024-04-06T15:47:42.111Z,28.80
2024-04-06T15:50:10.722Z,28.90
2024-04-06T15:52:39.442Z,28.90
2024-04-06T15:55:08.141Z,28.90
2024-04-06T15:57:36.739Z,28.90
2024-04-06T16:00:06.790Z,28.90
2024-04-06T16:02:35.459Z,28.90
2024-04-06T16:05:04.331Z,28.90
2024-04-06T16:07:33.076Z,28.90
2024-04-06T16:10:01.724Z,28.80
2024-04-06T16:12:31.263Z,28.80
2024-04-06T16:14:59.962Z,28.80
2024-04-06T16:17:28.673Z,28.70
2024-04-06T16:19:57.364Z,28.70
2024-04-06T16:22:26.197Z,28.70
2024-04-06T16:24:56.122Z,28.70
2024-04-06T16:27:25.222Z,28.60
2024-04-06T16:29:53.829Z,28.60
2024-04-06T16:32:22.536Z,28.50
2024-04-06T16:34:51.149Z,28.40
2024-04-06T16:37:20.150Z,28.40
2024-04-06T16:39:48.784Z,28.30
2024-04-06T16:42:17.423Z,28.20
2024-04-06T16:44:46.020Z,28.10
2024-04-06T16:47:14.637Z,28.20
2024-04-06T16:49:43.398Z,28.10
2024-04-06T16:52:12.171Z,28.00
2024-04-06T16:54:40.839Z,28.00
2024-04-06T16:57:09.452Z,27.80
2024-04-06T16:59:38.105Z,27.80
2024-04-06T17:02:07.819Z,27.80
2024-04-06T17:04:38.113Z,27.60
2024-04-06T17:07:06.879Z,27.60
2024-04-06T17:09:35.595Z,27.50
2024-04-06T17:12:04.630Z,27.60
2024-04-06T17:14:33.240Z,27.40
2024-04-06T17:17:01.864Z,27.40
2024-04-06T17:19:31.915Z,27.30
2024-04-06T17:22:00.611Z,27.20
2024-04-06T17:24:29.193Z,27.20
2024-04-06T17:26:57.870Z,27.10
2024-04-06T17:29:26.919Z,27.00
2024-04-06T17:31:55.544Z,26.90
2024-04-06T17:34:25.507Z,26.80
2024-04-06T17:36:54.100Z,26.70
2024-04-06T17:39:25.904Z,26.60
2024-04-06T17:41:54.782Z,26.50
2024-04-06T17:44:23.459Z,26.40
2024-04-06T17:46:53.642Z,26.30
2024-04-06T17:49:22.270Z,26.50
2024-04-06T17:51:52.592Z,26.20
2024-04-06T17:54:21.292Z,26.10
2024-04-06T17:56:50.255Z,26.10
2024-04-06T17:59:19.436Z,26.10
2024-04-06T18:01:48.239Z,25.80
2024-04-06T18:04:17.914Z,25.70
2024-04-06T18:06:46.622Z,25.70
2024-04-06T18:09:17.471Z,25.70
2024-04-06T18:11:46.341Z,25.60
2024-04-06T18:14:14.947Z,25.60
2024-04-06T18:16:43.852Z,25.40
2024-04-06T18:19:13.528Z,25.40
2024-04-06T18:21:43.051Z,25.30
2024-04-06T18:24:11.692Z,25.20
2024-04-06T18:26:41.175Z,25.10
2024-04-06T18:29:11.268Z,25.00
2024-04-06T18:31:40.194Z,25.00
2024-04-06T18:34:09.090Z,24.90
2024-04-06T18:36:38.091Z,24.90
2024-04-06T18:39:09.301Z,24.80
2024-04-06T18:41:38.913Z,24.70
2024-04-06T18:44:07.631Z,24.70
2024-04-06T18:46:37.907Z,24.70
2024-04-06T18:49:06.917Z,24.60
2024-04-06T18:51:37.164Z,24.50
2024-04-06T18:54:16.733Z,24.40
2024-04-06T18:56:36.048Z,24.40
2024-04-06T18:59:06.709Z,24.40
2024-04-06T19:01:36.986Z,24.40
2024-04-06T19:04:07.020Z,24.30
2024-04-06T19:06:37.176Z,24.20
2024-04-06T19:09:06.683Z,24.20
2024-04-06T19:11:35.833Z,24.10
2024-04-06T19:14:04.460Z,24.00
2024-04-06T19:16:33.189Z,23.90
2024-04-06T19:19:03.234Z,23.80
2024-04-06T19:21:33.191Z,23.70
2024-04-06T19:24:01.850Z,23.60
2024-04-06T19:26:31.720Z,23.60
2024-04-06T19:29:01.982Z,23.60
2024-04-06T19:31:32.874Z,23.40
2024-04-06T19:34:01.550Z,23.40
2024-04-06T19:36:32.439Z,23.40
2024-04-06T19:39:01.812Z,23.30
2024-04-06T19:41:30.443Z,23.40
2024-04-06T19:43:59.345Z,23.30
2024-04-06T19:46:28.757Z,23.30
2024-04-06T19:48:57.360Z,23.30
2024-04-06T19:51:26.596Z,23.30
2024-04-06T19:53:55.164Z,23.20
2024-04-06T19:56:25.535Z,23.20
2024-04-06T19:58:55.818Z,23.20
2024-04-06T20:01:24.535Z,23.10
2024-04-06T20:03:53.168Z,23.10
2024-04-06T20:06:21.930Z,23.00
2024-04-06T20:08:55.072Z,22.90
2024-04-06T20:11:24.093Z,22.90
2024-04-06T20:13:54.383Z,22.90
2024-04-06T20:16:23.243Z,22.80
2024-04-06T20:18:51.946Z,22.80
2024-04-06T20:21:21.679Z,22.80
2024-04-06T20:24:08.326Z,22.80
2024-04-06T20:26:40.566Z,22.60
2024-04-06T20:29:12.198Z,22.60
2024-04-06T20:31:40.902Z,22.50
2024-04-06T20:34:09.670Z,22.40
2024-04-06T20:36:39.184Z,22.30
2024-04-06T20:39:09.544Z,22.30
2024-04-06T20:41:39.249Z,22.20
2024-04-06T20:44:09.529Z,22.10
2024-04-06T20:46:38.919Z,22.00
2024-04-06T20:49:09.235Z,22.10
2024-04-06T20:51:38.026Z,21.90
2024-04-06T20:54:06.845Z,21.90
2024-04-06T20:56:35.438Z,21.90
2024-04-06T20:59:04.084Z,21.80
2024-04-06T21:01:32.852Z,22.00
2024-04-06T21:04:02.259Z,21.90
2024-04-06T21:06:31.758Z,21.90
2024-04-06T21:09:00.367Z,21.90
2024-04-06T21:11:29.890Z,21.90
2024-04-06T21:13:58.460Z,21.90
2024-04-06T21:16:28.800Z,21.90
2024-04-06T21:18:57.434Z,21.80
2024-04-06T21:21:26.203Z,21.90
2024-04-06T21:23:55.022Z,21.80
2024-04-06T21:26:23.653Z,21.90
2024-04-06T21:31:21.640Z,21.70
2024-04-06T21:33:50.405Z,21.70
2024-04-06T21:36:19.091Z,21.70
2024-04-06T21:38:48.848Z,21.70
2024-04-06T21:41:19.082Z,21.90
2024-04-06T21:43:50.857Z,21.80
2024-04-06T21:46:18.269Z,21.80
2024-04-06T21:48:46.893Z,21.80
2024-04-06T21:51:15.758Z,21.80
2024-04-06T21:53:45.235Z,21.70
2024-04-06T21:56:13.868Z,21.60
2024-04-06T21:58:46.990Z,21.70
2024-04-06T22:01:15.702Z,21.70
2024-04-06T22:03:44.498Z,21.80
2024-04-06T22:06:13.130Z,21.80
2024-04-06T22:08:41.752Z,21.90
2024-04-06T22:11:12.106Z,21.80
2024-04-06T22:13:41.491Z,21.80
2024-04-06T22:16:10.705Z,21.80
2024-04-06T22:18:39.681Z,21.90
2024-04-06T22:21:10.257Z,22.00
2024-04-06T22:23:39.409Z,21.80
2024-04-06T22:26:08.477Z,21.90
2024-04-06T22:28:37.107Z,21.90
2024-04-06T22:31:06.278Z,21.80
2024-04-06T22:33:34.986Z,21.80
2024-04-06T22:36:03.662Z,21.80
2024-04-06T22:38:32.302Z,22.00
2024-04-06T22:41:01.061Z,21.80
2024-04-06T22:43:29.806Z,21.80
2024-04-06T22:45:58.436Z,21.80
2024-04-06T22:48:27.052Z,21.80
2024-04-06T22:50:55.942Z,21.80
2024-04-06T22:53:24.637Z,21.80
2024-04-06T22:55:53.554Z,21.80
2024-04-06T22:58:22.237Z,21.60
2024-04-06T23:00:50.871Z,21.80
2024-04-06T23:03:20.454Z,21.90
2024-04-06T23:05:51.036Z,21.90
2024-04-06T23:08:19.759Z,21.90
2024-04-06T23:10:48.579Z,21.90
2024-04-06T23:13:18.251Z,21.90
2024-04-06T23:15:48.390Z,21.90
2024-04-06T23:18:17.111Z,22.00
2024-04-06T23:20:45.736Z,22.00
2024-04-06T23:23:14.340Z,22.00
2024-04-06T23:25:43.737Z,22.10
2024-04-06T23:28:12.387Z,22.10
2024-04-06T23:30:41.962Z,22.30
2024-04-06T23:33:11.159Z,22.30
2024-04-06T23:35:41.156Z,22.40
2024-04-06T23:38:09.867Z,22.30
2024-04-06T23:40:42.981Z,22.30
2024-04-06T23:43:12.022Z,22.40
2024-04-06T23:45:41.504Z,22.40
2024-04-06T23:48:10.194Z,22.30
2024-04-06T23:50:38.822Z,22.40
2024-04-06T23:53:07.441Z,22.40
2024-04-06T23:55:36.134Z,22.30
2024-04-06T23:58:04.811Z,22.30
